Flight Track Log - Related Links

Times and Time Zones

All times are in EDT time to prevent confusion due to time zone crossing. See the N858PB flight status page for this flight to view local times or setup timezone preferences in your user account.

Time Position Orientation Groundspeed Altitude Reporting Facility
EDT Latitude Longitude Course Direction KTS MPH feet Rate Location/Type
Wed 06:25:40 PM 41.5328 -93.6619 195° South 121 139 1,500  Level Minneapolis Center
Wed 06:26:16 PM 41.5122 -93.6694 195° South 127 146 2,200 1,024 Climbing Minneapolis Center
Wed 06:27:02 PM 41.4883 -93.6514 150° Southeast 137 158 2,900 889 Climbing Minneapolis Center
Wed 06:28:04 PM 41.4756 -93.5989 108° East 151 174 3,800 968 Climbing Minneapolis Center
Wed 06:29:06 PM 41.4803 -93.5372 84° East 156 180 4,900 1,034 Climbing Minneapolis Center
Wed 06:30:00 PM 41.4894 -93.4769 79° East 161 185 5,800 871 Climbing Minneapolis Center
Wed 06:31:10 PM 41.4867 -93.4153 93° East 167 192 6,700 545 Climbing Minneapolis Center
Wed 06:32:12 PM 41.4903 -93.3500 86° East 175 201 7,000 145 Climbing Minneapolis Center
Wed 06:33:14 PM 41.4944 -93.2703 86° East 199 229 7,000 49 Level Minneapolis Center
Wed 06:34:15 PM 41.5042 -93.1781 82° East 209 241 7,100  Climbing Minneapolis Center
Wed 06:35:30 PM 41.5042 -93.1064 90° East 214 246 7,000 -44 Descending Minneapolis Center
Wed 06:36:32 PM 41.5089 -93.0094 86° East 214 246 7,000  Level Minneapolis Center
Wed 06:37:37 PM 41.5131 -92.9244 86° East 214 246 7,000  Level Minneapolis Center
Wed 06:38:39 PM 41.5169 -92.8406 86° East 212 244 7,000  Level Minneapolis Center
Wed 06:39:41 PM 41.5214 -92.7625 86° East 212 244 7,000  Level Minneapolis Center
Wed 06:40:43 PM 41.5258 -92.6775 86° East 213 245 7,000  Level Minneapolis Center
Wed 06:41:45 PM 41.5289 -92.5992 87° East 213 245 7,000 45 Level Minneapolis Center
Wed 06:42:57 PM 41.5322 -92.5003 87° East 213 245 7,100 45 Climbing Chicago Center
Wed 06:43:59 PM 41.5372 -92.4219 85° East 214 246 7,100  Level Chicago Center
Wed 06:45:02 PM 41.5394 -92.3436 88° East 213 245 7,100  Level Chicago Center
Wed 06:46:04 PM 41.5436 -92.2672 86° East 211 243 7,100  Level Chicago Center
Wed 06:47:06 PM 41.5472 -92.1739 87° East 211 243 7,100  Level Chicago Center
Wed 06:48:08 PM 41.5519 -92.0972 85° East 211 243 7,100  Level Chicago Center
Wed 06:49:10 PM 41.5553 -92.0183 87° East 212 244 7,100  Level Chicago Center
Wed 06:50:12 PM 41.5597 -91.9433 85° East 210 242 7,100 -97 Level Chicago Center
Wed 06:51:14 PM 41.5619 -91.8647 88° East 213 245 6,900 -435 Descending Chicago Center
Wed 06:52:16 PM 41.5667 -91.7642 86° East 227 261 6,200 -629 Descending Chicago Center
Wed 06:53:18 PM 41.5706 -91.6786 86° East 233 268 5,600 -532 Descending Chicago Center
Wed 06:54:20 PM 41.5739 -91.5950 87° East 230 265 5,100 -242 Descending Chicago Center
Wed 06:55:22 PM 41.5761 -91.5156 88° East 219 252 5,100  Level Chicago Center
Wed 06:56:24 PM 41.5794 -91.4389 87° East 211 243 5,100  Level Chicago Center
Wed 06:57:26 PM 41.5831 -91.3458 87° East 212 244 5,100  Level Chicago Center
Wed 06:58:29 PM 41.5869 -91.2683 86° East 212 244 5,100  Level Chicago Center
Wed 06:59:31 PM 41.5906 -91.1908 86° East 211 243 5,100  Level Chicago Center
Wed 07:00:33 PM 41.5925 -91.1156 88° East 208 239 5,100 -387 Level Chicago Center
Wed 07:01:35 PM 41.5961 -91.0194 87° East 215 247 4,300 -726 Descending Chicago Center
Wed 07:02:37 PM 41.5994 -90.9419 87° East 213 245 3,600 -629 Descending Chicago Center
Wed 07:03:39 PM 41.6025 -90.8592 87° East 210 242 3,000 -435 Descending Chicago Center
Wed 07:04:41 PM 41.6044 -90.7894 88° East 209 241 2,700 -290 Descending Chicago Center
Wed 07:06:00 PM 41.6015 -90.6866 92° East  Level FlightAware Approximate
Wed 07:13:00 PM 41.6000 -90.5833 90° East  Level FlightAware Approximate
Wed 07:14:00 PM 41.6103 -90.5884 90° East  Level Estimated
Wed 07:15:00 PM 41.6103 -90.5884 90° East  Level Estimated

Login

Don't have an account? Register now (free) for customized features, flight alerts, and more!